Time;durP1;ratioP1;P1;durP2;ratioP2;P2;SDS_P1;SDS_P2;PMS_P1;PMS_P2;Temp;Humidity;BMP_temperature;BMP_pressure;BME280_temperature;BME280_humidity;BME280_pressure;Samples;Min_cycle;Max_cycle;Signal;HPM_P1;HPM_P2
2022/03/09 00:01:23;;;;;;;173.73;91.22;;;;;;;16.97;100.00;98688.75;5009223;28;20057;-69
2022/03/09 00:03:59;;;;;;;162.55;85.57;;;;;;;16.96;100.00;98694.03;5009437;28;20121;-70
2022/03/09 00:06:55;;;;;;;165.80;86.70;;;;;;;16.90;100.00;98695.22;5006774;28;20145;-69
2022/03/09 00:09:31;;;;;;;170.45;84.15;;;;;;;16.84;100.00;98703.38;5008136;28;20050;-69
2022/03/09 00:12:20;;;;;;;165.93;85.68;;;;;;;16.91;100.00;98701.25;5008591;28;20121;-69
2022/03/09 00:15:02;;;;;;;158.85;81.70;;;;;;;16.96;100.00;98710.47;5009394;28;20050;-69
2022/03/09 00:17:50;;;;;;;163.98;85.22;;;;;;;16.88;100.00;98704.88;5029013;28;20121;-69
2022/03/09 00:20:32;;;;;;;146.80;79.18;;;;;;;16.84;100.00;98711.19;4995740;28;20043;-69
2022/03/09 00:23:26;;;;;;;141.93;75.65;;;;;;;16.85;100.00;98707.63;4998953;28;20060;-69
2022/03/09 00:26:02;;;;;;;152.23;77.38;;;;;;;16.84;100.00;98705.97;4991282;28;20072;-68
2022/03/09 00:28:59;;;;;;;154.15;80.13;;;;;;;16.80;100.00;98710.50;4996687;28;20038;-69
2022/03/09 00:31:38;;;;;;;147.63;77.75;;;;;;;16.79;100.00;98713.16;5004682;28;20050;-69
2022/03/09 00:34:27;;;;;;;171.43;90.95;;;;;;;16.81;100.00;98722.56;5007725;28;20060;-70
2022/03/09 00:37:09;;;;;;;145.40;78.43;;;;;;;16.78;100.00;98724.50;5007636;28;20054;-68
2022/03/09 00:39:57;;;;;;;139.52;76.38;;;;;;;16.82;100.00;98720.81;5005876;28;20081;-69
2022/03/09 00:42:47;;;;;;;149.10;77.15;;;;;;;16.73;100.00;98724.75;5007374;28;20067;-70
2022/03/09 00:45:29;;;;;;;140.30;73.53;;;;;;;16.68;100.00;98728.53;5006729;28;20049;-70
2022/03/09 00:48:19;;;;;;;138.38;73.53;;;;;;;16.54;100.00;98741.38;5007437;28;20120;-69
2022/03/09 00:51:01;;;;;;;139.25;71.07;;;;;;;16.57;100.00;98738.63;5005782;28;20061;-68
2022/03/09 00:53:53;;;;;;;138.38;69.97;;;;;;;16.63;100.00;98749.59;5007571;28;20065;-70
2022/03/09 00:56:35;;;;;;;136.13;71.43;;;;;;;16.54;100.00;98749.19;5008449;28;20073;-69
2022/03/09 00:59:23;;;;;;;127.32;67.38;;;;;;;16.59;100.00;98762.81;4988794;28;20046;-70
2022/03/09 01:02:06;;;;;;;131.35;68.60;;;;;;;16.42;100.00;98769.75;5012543;28;20045;-70
2022/03/09 01:04:55;;;;;;;122.95;65.50;;;;;;;16.43;100.00;98771.44;5007831;28;20058;-70
2022/03/09 01:07:37;;;;;;;128.43;65.72;;;;;;;16.49;100.00;98774.63;5008087;28;20046;-69
2022/03/09 01:10:26;;;;;;;120.38;63.78;;;;;;;16.54;100.00;98770.00;5007858;28;20119;-69
2022/03/09 01:13:08;;;;;;;113.75;60.53;;;;;;;16.46;100.00;98776.44;5008235;28;20076;-69
2022/03/09 01:15:57;;;;;;;122.07;64.15;;;;;;;16.39;100.00;98777.69;5008213;28;20052;-70
2022/03/09 01:18:46;;;;;;;120.85;63.28;;;;;;;16.37;100.00;98778.69;5006077;28;20046;-69
2022/03/09 01:21:35;;;;;;;122.63;65.00;;;;;;;16.45;100.00;98785.16;5006839;28;20064;-69
2022/03/09 01:24:23;;;;;;;127.95;64.70;;;;;;;16.36;100.00;98790.84;4991032;28;20107;-69
2022/03/09 01:27:12;;;;;;;117.88;65.97;;;;;;;16.40;100.00;98784.56;5005929;28;20060;-69
2022/03/09 01:30:07;;;;;;;127.53;65.97;;;;;;;16.49;100.00;98792.81;4989091;28;20042;-69
2022/03/09 01:33:03;;;;;;;128.15;68.05;;;;;;;16.43;100.00;98792.22;4968490;28;20136;-69
2022/03/09 01:35:38;;;;;;;133.40;69.65;;;;;;;16.48;100.00;98797.19;4967872;28;20046;-69
2022/03/09 01:38:33;;;;;;;144.80;74.15;;;;;;;16.58;100.00;98800.16;4951843;28;20826;-68
2022/03/09 01:41:09;;;;;;;151.32;79.30;;;;;;;16.69;100.00;98821.25;4972863;28;20051;-69
2022/03/09 01:44:16;;;;;;;155.02;82.53;;;;;;;16.69;100.00;98829.06;4949487;28;20047;-69
2022/03/09 01:47:06;;;;;;;151.73;79.68;;;;;;;16.73;100.00;98830.59;4990690;28;20449;-70
2022/03/09 01:50:01;;;;;;;150.85;80.75;;;;;;;16.79;100.00;98830.25;4974943;28;20050;-70
2022/03/09 01:52:37;;;;;;;158.80;82.47;;;;;;;16.73;100.00;98833.19;4987874;28;20099;-70
2022/03/09 01:55:26;;;;;;;147.73;78.15;;;;;;;16.89;100.00;98836.66;4968248;28;20061;-69
2022/03/09 01:58:14;;;;;;;138.98;77.90;;;;;;;16.94;100.00;98833.81;4981195;28;20038;-69
2022/03/09 02:00:56;;;;;;;154.57;79.93;;;;;;;16.96;100.00;98837.16;4988237;28;20066;-69
2022/03/09 02:03:45;;;;;;;157.80;83.28;;;;;;;17.06;100.00;98847.03;4974185;28;20142;-70
2022/03/09 02:06:30;;;;;;;155.43;82.25;;;;;;;17.11;100.00;98845.00;4987439;28;20102;-69
2022/03/09 02:12:27;;;;;;;169.27;85.20;;;;;;;17.26;100.00;98850.28;4975834;28;20050;-69
2022/03/09 02:15:10;;;;;;;162.23;84.22;;;;;;;17.32;100.00;98855.19;4972914;28;20049;-68
2022/03/09 02:17:59;;;;;;;158.07;80.30;;;;;;;17.40;100.00;98860.81;4975152;28;20489;-70
2022/03/09 02:20:50;;;;;;;164.65;81.80;;;;;;;17.55;100.00;98865.19;4977471;28;20046;-69
2022/03/09 02:23:32;;;;;;;145.55;81.18;;;;;;;17.70;100.00;98868.72;4972577;28;20047;-69
2022/03/09 02:26:20;;;;;;;149.02;81.63;;;;;;;17.97;100.00;98882.78;4985800;28;20470;-70
2022/03/09 02:29:02;;;;;;;148.50;79.28;;;;;;;18.25;100.00;98888.13;4999954;28;20050;-70
2022/03/09 02:31:51;;;;;;;160.10;78.72;;;;;;;18.27;100.00;98890.66;5004390;28;20366;-70
2022/03/09 02:34:33;;;;;;;142.13;80.15;;;;;;;18.59;100.00;98897.47;5006416;28;20054;-69
2022/03/09 02:37:22;;;;;;;142.80;81.22;;;;;;;18.76;100.00;98903.47;5005001;28;20061;-68
2022/03/09 02:40:10;;;;;;;148.05;82.45;;;;;;;18.85;100.00;98913.31;5005095;28;20045;-70
2022/03/09 02:42:59;;;;;;;152.45;81.10;;;;;;;19.09;100.00;98917.06;5001489;28;20776;-69
2022/03/09 02:45:41;;;;;;;158.73;82.25;;;;;;;19.29;100.00;98918.47;4988928;28;20050;-70
2022/03/09 02:48:30;;;;;;;158.20;84.00;;;;;;;19.52;100.00;98924.91;4988119;28;20127;-68
2022/03/09 02:51:12;;;;;;;150.55;79.78;;;;;;;19.85;100.00;98928.00;4998360;28;20053;-70
2022/03/09 02:54:01;;;;;;;153.88;80.18;;;;;;;20.05;100.00;98930.19;4993476;28;20369;-68
2022/03/09 02:56:43;;;;;;;147.40;80.10;;;;;;;20.34;100.00;98932.72;5006742;28;20545;-70
2022/03/09 02:59:31;;;;;;;145.13;77.65;;;;;;;20.39;100.00;98933.25;5002410;28;20046;-70
2022/03/09 03:02:26;;;;;;;139.38;73.60;;;;;;;20.72;100.00;98936.25;5006258;28;20132;-71
2022/03/09 03:05:03;;;;;;;130.40;70.80;;;;;;;21.11;100.00;98944.94;5005918;28;20058;-70
2022/03/09 03:07:53;;;;;;;134.73;71.38;;;;;;;21.38;100.00;98948.31;5010394;28;20046;-70
2022/03/09 03:10:35;;;;;;;135.35;68.40;;;;;;;21.33;97.74;98948.63;4988079;28;20129;-70
2022/03/09 03:13:24;;;;;;;120.90;61.33;;;;;;;21.53;94.08;98949.88;5004403;28;20766;-70
2022/03/09 03:16:06;;;;;;;117.18;62.53;;;;;;;21.45;94.79;98943.47;5004598;28;20056;-70
2022/03/09 03:19:01;;;;;;;124.65;61.50;;;;;;;21.54;89.81;98950.69;5001501;28;20084;-71
2022/03/09 03:21:37;;;;;;;140.07;62.97;;;;;;;21.65;87.13;98951.59;5004139;28;20120;-69
2022/03/09 03:24:28;;;;;;;129.25;63.35;;;;;;;21.80;83.03;98951.44;5005627;28;20076;-69
2022/03/09 03:27:17;;;;;;;131.88;64.78;;;;;;;22.02;79.59;98967.38;5008725;28;20453;-71
2022/03/09 03:29:59;;;;;;;127.78;67.05;;;;;;;22.17;83.69;98962.81;5009615;28;20065;-71
2022/03/09 03:33:07;;;;;;;108.70;56.08;;;;;;;22.37;76.16;98962.16;5020930;28;20037;-70
2022/03/09 03:35:49;;;;;;;99.43;51.28;;;;;;;22.65;74.54;98966.22;5009287;28;20078;-70
2022/03/09 03:38:37;;;;;;;103.28;50.97;;;;;;;22.79;71.24;98966.88;5023234;28;20355;-69
2022/03/09 03:41:19;;;;;;;94.28;48.28;;;;;;;23.04;71.30;98963.25;5013478;28;20049;-70
2022/03/09 03:44:08;;;;;;;90.30;43.30;;;;;;;22.98;68.76;98968.97;5008369;28;20045;-68
2022/03/09 03:46:50;;;;;;;75.95;37.78;;;;;;;22.96;67.43;98970.88;5004185;28;20041;-70
2022/03/09 03:49:39;;;;;;;72.10;36.15;;;;;;;23.32;68.58;98976.88;4989580;28;20043;-70
2022/03/09 03:52:21;;;;;;;70.07;34.92;;;;;;;23.55;63.86;98984.69;5005538;28;20855;-71
2022/03/09 03:55:11;;;;;;;62.30;33.00;;;;;;;23.65;65.78;98980.38;5002337;28;20136;-71
2022/03/09 03:57:53;;;;;;;68.57;31.63;;;;;;;23.90;66.56;98987.16;5007442;28;20049;-71
2022/03/09 04:00:42;;;;;;;58.53;30.55;;;;;;;24.31;61.25;98983.03;5009066;28;20543;-71
2022/03/09 04:03:24;;;;;;;65.53;32.65;;;;;;;24.58;63.92;98986.03;5027632;28;20519;-71
2022/03/09 04:06:13;;;;;;;58.38;29.77;;;;;;;24.55;63.73;98986.28;5009913;28;20053;-72
2022/03/09 04:08:56;;;;;;;52.28;29.48;;;;;;;24.90;62.96;98985.16;5007504;28;20046;-71
2022/03/09 04:11:45;;;;;;;46.88;25.73;;;;;;;24.88;58.61;98993.19;5005939;28;20050;-72
2022/03/09 04:14:27;;;;;;;55.75;25.38;;;;;;;25.08;57.86;98994.16;5009214;28;20123;-72
2022/03/09 04:17:16;;;;;;;54.88;26.33;;;;;;;25.18;56.59;98984.53;5004358;28;20046;-72
2022/03/09 04:19:58;;;;;;;52.47;27.30;;;;;;;25.44;54.93;98995.47;5002562;28;20054;-70
2022/03/09 04:22:47;;;;;;;53.13;26.60;;;;;;;25.74;59.33;98998.13;4998718;28;20060;-71
2022/03/09 04:25:30;;;;;;;53.33;25.60;;;;;;;26.12;54.93;99000.03;5000249;28;20046;-71
2022/03/09 04:28:19;;;;;;;56.47;25.08;;;;;;;25.99;55.04;98990.69;4999538;28;20296;-72
2022/03/09 04:31:08;;;;;;;43.55;22.33;;;;;;;26.19;55.47;98989.75;4989339;28;20380;-70
2022/03/09 04:33:50;;;;;;;49.58;24.02;;;;;;;26.28;54.13;98992.44;4982885;28;20053;-72
2022/03/09 04:36:38;;;;;;;42.47;21.90;;;;;;;26.41;53.61;98986.06;4985616;28;20058;-72
2022/03/09 04:39:22;;;;;;;38.55;19.92;;;;;;;26.49;52.32;98986.22;4979581;28;20141;-71
2022/03/09 04:42:18;;;;;;;39.50;19.55;;;;;;;26.58;52.67;98991.47;4971227;28;20054;-71
2022/03/09 04:44:54;;;;;;;43.75;19.20;;;;;;;26.51;52.44;98987.72;4982101;28;20114;-70
2022/03/09 04:47:48;;;;;;;35.50;18.73;;;;;;;26.74;51.05;98996.19;4971906;28;20077;-70
2022/03/09 04:50:23;;;;;;;37.45;19.05;;;;;;;27.04;51.15;98989.94;4968210;28;20118;-70
2022/03/09 04:53:20;;;;;;;46.35;19.10;;;;;;;27.15;52.09;98994.22;4962779;28;20046;-68
2022/03/09 04:55:56;;;;;;;42.60;17.98;;;;;;;27.17;51.33;98995.75;4962660;28;20400;-69
2022/03/09 04:58:53;;;;;;;37.33;19.40;;;;;;;27.37;52.04;98999.19;4968766;28;20080;-71
2022/03/09 05:01:29;;;;;;;45.70;17.60;;;;;;;27.67;53.16;98990.19;4969233;28;20063;-67
2022/03/09 05:04:33;;;;;;;35.35;17.30;;;;;;;27.82;49.80;98995.81;4962089;28;20407;-70
2022/03/09 05:07:20;;;;;;;38.28;19.27;;;;;;;28.06;51.71;99004.03;4966284;28;20347;-66
2022/03/09 05:10:17;;;;;;;42.35;20.65;;;;;;;27.59;53.91;98998.84;4967479;28;20215;-71
2022/03/09 05:12:53;;;;;;;51.53;21.17;;;;;;;28.05;50.35;99002.38;4985258;28;20129;-69
2022/03/09 05:15:48;;;;;;;58.20;25.48;;;;;;;27.38;49.80;99004.31;4984381;28;20066;-68
2022/03/09 05:18:23;;;;;;;50.28;22.23;;;;;;;27.55;49.68;99000.09;4985815;28;20054;-67
2022/03/09 05:21:12;;;;;;;32.55;16.92;;;;;;;27.72;50.28;99002.00;4984974;28;20057;-71
2022/03/09 05:24:00;;;;;;;31.40;15.45;;;;;;;27.58;49.88;99005.13;4974580;28;20054;-67
2022/03/09 05:26:42;;;;;;;31.67;14.57;;;;;;;27.67;49.21;99009.56;4978513;28;20050;-67
2022/03/09 05:29:38;;;;;;;30.90;13.80;;;;;;;27.66;50.90;99001.75;4996933;28;20067;-68
2022/03/09 05:32:13;;;;;;;28.60;12.73;;;;;;;27.57;49.00;99002.63;5008354;28;20045;-66
2022/03/09 05:35:02;;;;;;;24.80;12.23;;;;;;;27.79;48.12;99003.06;5004183;28;20054;-63
2022/03/09 05:37:45;;;;;;;28.13;13.57;;;;;;;27.05;48.23;99002.19;5004876;28;20399;-63
2022/03/09 05:40:41;;;;;;;27.00;11.90;;;;;;;27.66;52.15;99002.59;5004219;28;20049;-65
2022/03/09 05:43:17;;;;;;;28.52;12.38;;;;;;;27.72;50.43;98990.56;5004359;28;20062;-67
2022/03/09 05:46:07;;;;;;;27.07;12.00;;;;;;;28.12;54.74;98987.53;4991000;28;20057;-65
2022/03/09 05:48:43;;;;;;;27.67;11.45;;;;;;;28.36;50.11;98985.19;5003656;28;20387;-66
2022/03/09 05:51:31;;;;;;;34.03;12.48;;;;;;;28.21;49.42;98989.34;5002871;28;20354;-66
2022/03/09 05:54:13;;;;;;;29.75;13.55;;;;;;;28.20;52.24;98981.53;4987753;28;20046;-65
2022/03/09 05:57:01;;;;;;;26.05;12.20;;;;;;;27.97;51.49;98973.16;5004358;28;20049;-67
2022/03/09 05:59:47;;;;;;;36.63;12.02;;;;;;;28.09;51.98;98977.25;5004936;28;20049;-68
2022/03/09 06:02:44;;;;;;;29.02;13.48;;;;;;;28.20;52.53;98978.88;4995513;28;20344;-66
2022/03/09 06:05:39;;;;;;;35.90;13.27;;;;;;;28.37;50.46;98976.25;5005028;28;20056;-65
2022/03/09 06:08:14;;;;;;;25.08;13.52;;;;;;;28.00;52.54;98975.50;5004454;28;20057;-65
2022/03/09 06:11:09;;;;;;;35.22;14.48;;;;;;;27.88;49.65;98969.56;5011506;28;20048;-67
2022/03/09 06:13:44;;;;;;;30.13;14.50;;;;;;;28.43;51.97;98965.03;5005009;28;20081;-66
2022/03/09 06:16:33;;;;;;;32.70;13.82;;;;;;;28.49;52.65;98956.50;5004120;28;20042;-66
2022/03/09 06:19:15;;;;;;;37.35;14.55;;;;;;;28.76;50.08;98949.41;5004071;28;20170;-66
2022/03/09 06:22:11;;;;;;;31.02;13.90;;;;;;;28.67;51.26;98959.09;5011541;28;20069;-67
2022/03/09 06:24:46;;;;;;;26.83;13.48;;;;;;;27.47;48.80;98944.38;5004718;28;20049;-66
2022/03/09 06:27:53;;;;;;;29.35;13.52;;;;;;;28.22;51.73;98943.31;5002609;28;20059;-65
2022/03/09 06:30:42;;;;;;;43.67;14.30;;;;;;;28.20;49.80;98939.97;5002660;28;20056;-65
2022/03/09 06:33:32;;;;;;;33.15;13.57;;;;;;;28.55;50.95;98929.34;5003954;28;20377;-65
2022/03/09 06:36:15;;;;;;;29.95;12.93;;;;;;;28.31;50.01;98923.00;5004554;28;20153;-65
2022/03/09 06:39:04;;;;;;;26.20;11.95;;;;;;;27.96;48.40;98926.44;5000447;28;20046;-65
2022/03/09 06:41:46;;;;;;;29.13;10.85;;;;;;;28.18;48.24;98915.44;5002642;28;20049;-65
2022/03/09 06:44:35;;;;;;;25.73;11.27;;;;;;;28.46;50.33;98910.88;4987236;28;20046;-65
2022/03/09 06:47:24;;;;;;;24.75;10.68;;;;;;;27.96;45.88;98903.44;5004850;28;20069;-66
2022/03/09 06:50:15;;;;;;;26.88;10.93;;;;;;;27.99;49.63;98908.44;5004647;28;20374;-65
2022/03/09 06:52:57;;;;;;;33.60;11.13;;;;;;;28.38;49.03;98909.00;4992187;28;20042;-65
2022/03/09 06:55:46;;;;;;;36.95;11.15;;;;;;;28.26;46.95;98904.06;5003287;28;20140;-65
2022/03/09 06:58:29;;;;;;;27.63;13.13;;;;;;;28.33;49.47;98900.69;4988172;28;20046;-64
2022/03/09 07:01:19;;;;;;;25.77;11.27;;;;;;;28.59;50.50;98898.03;5004483;28;20052;-65
2022/03/09 07:04:01;;;;;;;30.63;12.25;;;;;;;28.63;46.87;98895.94;5007316;28;20060;-65
2022/03/09 07:06:52;;;;;;;20.05;10.35;;;;;;;28.77;47.67;98892.72;5006358;28;20049;-65
2022/03/09 07:09:35;;;;;;;20.65;11.27;;;;;;;29.01;46.28;98882.25;5008097;28;20054;-65
2022/03/09 07:12:23;;;;;;;33.05;11.88;;;;;;;29.05;46.12;98877.50;5005461;28;20042;-67
2022/03/09 07:15:05;;;;;;;29.27;11.98;;;;;;;28.89;44.72;98878.22;5006178;28;20057;-66
2022/03/09 07:17:56;;;;;;;29.88;10.63;;;;;;;28.90;47.63;98874.56;5007481;28;20062;-66
2022/03/09 07:20:43;;;;;;;28.27;11.13;;;;;;;28.97;48.80;98861.53;5004538;28;20048;-66
2022/03/09 07:23:31;;;;;;;31.23;12.18;;;;;;;28.91;45.40;98863.81;5008134;28;20076;-66
2022/03/09 07:26:13;;;;;;;27.23;12.25;;;;;;;28.88;45.69;98858.00;5007946;28;20049;-66
2022/03/09 07:29:08;;;;;;;26.17;12.35;;;;;;;28.89;45.46;98849.84;5006961;28;20042;-66
2022/03/09 07:31:56;;;;;;;35.70;12.13;;;;;;;29.18;46.72;98844.19;5008056;28;20077;-67
2022/03/09 07:34:44;;;;;;;24.50;9.52;;;;;;;29.20;45.81;98842.22;5013286;28;20326;-66
2022/03/09 07:37:33;;;;;;;27.00;8.40;;;;;;;29.14;41.51;98842.84;4989208;28;20050;-66
2022/03/09 07:40:15;;;;;;;18.40;7.60;;;;;;;28.74;40.36;98834.66;5004671;28;20045;-66
2022/03/09 07:43:04;;;;;;;20.38;5.57;;;;;;;28.70;37.79;98822.72;4989475;28;20541;-66
2022/03/09 07:45:46;;;;;;;25.98;4.68;;;;;;;28.98;40.34;98826.84;4988743;28;20046;-66
2022/03/09 07:48:42;;;;;;;30.58;5.68;;;;;;;29.03;39.27;98818.44;4993489;28;20057;-66
2022/03/09 07:51:17;;;;;;;13.32;4.22;;;;;;;28.82;37.37;98821.47;4995697;28;20054;-66
2022/03/09 07:54:05;;;;;;;16.50;4.78;;;;;;;28.84;36.07;98816.84;4990394;28;20389;-66
2022/03/09 07:56:53;;;;;;;12.40;3.83;;;;;;;29.04;35.92;98814.78;4993710;28;20378;-67
2022/03/09 07:59:35;;;;;;;19.42;4.78;;;;;;;29.19;39.31;98803.41;5000347;28;20084;-67
2022/03/09 08:02:24;;;;;;;13.43;4.55;;;;;;;29.20;34.92;98799.75;5007812;28;20045;-66
2022/03/09 08:05:13;;;;;;;27.92;5.10;;;;;;;29.21;37.48;98796.09;5002879;28;20050;-67
2022/03/09 08:07:55;;;;;;;17.25;5.47;;;;;;;29.19;38.52;98790.13;4985223;28;20065;-67
2022/03/09 08:10:44;;;;;;;20.35;5.07;;;;;;;29.15;37.16;98791.44;4986742;28;20140;-66
2022/03/09 08:13:26;;;;;;;16.52;4.97;;;;;;;29.08;34.70;98792.25;4985537;28;20054;-67
2022/03/09 08:16:20;;;;;;;18.33;5.40;;;;;;;28.96;34.85;98785.56;4990404;28;20533;-67
2022/03/09 08:19:02;;;;;;;23.02;6.78;;;;;;;29.22;34.50;98781.84;4990383;28;20045;-67
2022/03/09 08:21:51;;;;;;;15.57;4.97;;;;;;;29.15;38.75;98775.50;4988443;28;20046;-67
2022/03/09 08:24:36;;;;;;;24.08;6.00;;;;;;;28.87;36.40;98774.09;4987458;28;20050;-67
2022/03/09 08:27:25;;;;;;;13.63;4.40;;;;;;;28.71;35.90;98768.69;5006595;28;20543;-67
2022/03/09 08:30:07;;;;;;;23.55;4.85;;;;;;;28.88;34.83;98758.03;5005649;28;20046;-67
2022/03/09 08:33:01;;;;;;;26.58;5.80;;;;;;;28.65;35.28;98756.06;5007135;28;20555;-67
2022/03/09 08:35:44;;;;;;;25.40;6.25;;;;;;;28.85;37.77;98753.03;5007788;28;20092;-66
2022/03/09 08:38:33;;;;;;;14.43;4.75;;;;;;;28.77;35.02;98746.84;5006871;28;20505;-67
2022/03/09 08:41:15;;;;;;;22.30;4.60;;;;;;;28.77;33.71;98744.19;5006340;28;20056;-66
2022/03/09 08:44:11;;;;;;;21.80;4.10;;;;;;;28.77;35.11;98747.69;5002248;28;20136;-67
2022/03/09 08:46:47;;;;;;;26.63;4.63;;;;;;;28.52;35.64;98738.75;4995473;28;20545;-67
2022/03/09 08:49:39;;;;;;;20.25;4.88;;;;;;;28.49;35.92;98736.44;5009042;28;20057;-66
2022/03/09 08:52:21;;;;;;;20.75;5.22;;;;;;;28.51;36.17;98726.47;5005360;28;20054;-67
2022/03/09 08:55:10;;;;;;;18.48;4.22;;;;;;;28.71;36.68;98720.94;5006994;28;20760;-66
2022/03/09 08:58:00;;;;;;;16.55;4.50;;;;;;;28.54;35.14;98717.41;5006121;28;20802;-67
2022/03/09 09:00:55;;;;;;;19.55;4.25;;;;;;;28.15;33.38;98712.56;5006090;28;20472;-66
2022/03/09 09:03:30;;;;;;;32.15;5.47;;;;;;;28.32;36.74;98708.19;5005776;28;20054;-66
2022/03/09 09:06:19;;;;;;;20.73;4.80;;;;;;;28.41;36.85;98707.25;5004068;28;20045;-67
2022/03/09 09:09:00;;;;;;;20.73;4.50;;;;;;;28.30;36.32;98704.84;5006197;28;20397;-67
2022/03/09 09:11:49;;;;;;;22.13;4.40;;;;;;;28.19;34.29;98697.16;5004208;28;20057;-67
2022/03/09 09:14:31;;;;;;;22.98;4.18;;;;;;;28.35;35.64;98701.72;5005909;28;20073;-67
2022/03/09 09:17:19;;;;;;;17.70;4.50;;;;;;;28.39;33.25;98693.31;5005851;28;20128;-67
2022/03/09 09:20:17;;;;;;;16.52;3.88;;;;;;;28.42;33.20;98687.66;5003601;28;20664;-68
2022/03/09 09:23:07;;;;;;;15.30;4.20;;;;;;;28.21;32.37;98691.72;5002195;28;20030;-68
2022/03/09 09:26:09;;;;;;;14.90;4.00;;;;;;;28.21;34.67;98692.53;5006237;28;20053;-66
2022/03/09 09:29:11;;;;;;;17.63;4.78;;;;;;;28.28;34.47;98682.13;5008454;28;20054;-66
2022/03/09 09:32:01;;;;;;;18.25;4.88;;;;;;;28.24;35.16;98691.41;4992502;28;20136;-67
2022/03/09 09:34:44;;;;;;;21.35;4.97;;;;;;;28.04;32.65;98683.63;4993308;28;20069;-66
2022/03/09 09:37:33;;;;;;;20.17;4.55;;;;;;;28.13;32.86;98682.69;4991680;28;20046;-66
2022/03/09 09:40:15;;;;;;;23.00;5.40;;;;;;;28.08;34.06;98684.16;5009607;28;20053;-66
2022/03/09 09:43:07;;;;;;;24.50;5.18;;;;;;;28.10;35.38;98672.41;5011025;28;20041;-66
2022/03/09 09:45:49;;;;;;;18.65;4.03;;;;;;;27.87;34.30;98673.91;4991393;28;20518;-66
2022/03/09 09:48:38;;;;;;;27.58;4.10;;;;;;;27.90;34.71;98672.78;4995677;28;20054;-66
2022/03/09 09:51:23;;;;;;;24.98;5.70;;;;;;;27.76;34.04;98671.53;5011263;28;20122;-66
2022/03/09 09:54:13;;;;;;;16.27;4.60;;;;;;;27.76;34.43;98664.44;5001180;28;20038;-65
2022/03/09 09:56:55;;;;;;;24.67;4.38;;;;;;;27.73;35.15;98664.72;4986372;28;20411;-66
2022/03/09 09:59:44;;;;;;;19.17;4.40;;;;;;;27.75;37.20;98651.34;4972257;28;20042;-67
2022/03/09 10:02:25;;;;;;;15.18;4.65;;;;;;;27.74;37.91;98647.84;4992825;28;20069;-66
2022/03/09 10:05:16;;;;;;;17.40;4.57;;;;;;;27.74;36.37;98645.22;4989151;28;20049;-66
2022/03/09 10:08:04;;;;;;;23.73;4.75;;;;;;;27.70;36.37;98643.84;4994677;28;20050;-67
2022/03/09 10:11:05;;;;;;;25.65;5.00;;;;;;;27.62;36.25;98651.72;4994527;28;20061;-66
2022/03/09 10:13:54;;;;;;;23.47;5.20;;;;;;;27.54;34.50;98649.03;5005826;28;20053;-67
2022/03/09 10:16:42;;;;;;;19.52;4.40;;;;;;;27.57;36.10;98640.78;5000988;28;20421;-67
2022/03/09 10:19:33;;;;;;;13.98;3.72;;;;;;;27.37;35.73;98642.75;4984143;28;20050;-67
2022/03/09 10:22:41;;;;;;;21.85;5.07;;;;;;;27.34;35.76;98642.22;4988205;28;20062;-67
2022/03/09 10:25:34;;;;;;;24.63;6.10;;;;;;;27.29;35.01;98637.41;4988319;28;20148;-67
2022/03/09 10:28:19;;;;;;;16.48;3.92;;;;;;;27.24;34.54;98641.47;5002859;28;20053;-66
2022/03/09 10:31:15;;;;;;;21.48;4.32;;;;;;;27.17;36.55;98635.97;4966518;28;20043;-66
2022/03/09 10:34:04;;;;;;;24.75;5.38;;;;;;;27.15;37.01;98619.41;4965492;28;20118;-68
2022/03/09 10:36:57;;;;;;;22.23;5.10;;;;;;;27.10;38.32;98613.75;4967859;28;20086;-69
2022/03/09 10:39:45;;;;;;;19.27;4.47;;;;;;;27.10;37.63;98621.69;4969439;28;20100;-68
2022/03/09 10:42:35;;;;;;;22.05;5.68;;;;;;;27.04;38.85;98622.28;4970875;28;20062;-68
2022/03/09 10:45:21;;;;;;;17.90;5.18;;;;;;;27.00;39.89;98624.41;4947837;28;20106;-67
2022/03/09 10:48:09;;;;;;;22.33;5.65;;;;;;;26.97;40.20;98630.00;4965350;28;20085;-68
2022/03/09 10:51:00;;;;;;;19.95;6.10;;;;;;;26.92;41.25;98619.03;4966523;28;20078;-68
2022/03/09 10:53:45;;;;;;;31.42;6.05;;;;;;;26.92;40.82;98621.66;4962915;28;20053;-68
2022/03/09 10:56:34;;;;;;;18.95;6.13;;;;;;;26.88;40.37;98622.94;4946773;28;20047;-65
2022/03/09 10:59:18;;;;;;;24.40;5.82;;;;;;;26.83;41.67;98622.53;4967294;28;20470;-67
2022/03/09 11:02:13;;;;;;;30.67;6.05;;;;;;;26.78;41.30;98621.34;4961733;28;20043;-67
2022/03/09 11:05:12;;;;;;;17.70;5.00;;;;;;;26.82;41.26;98615.59;4964371;28;20054;-65
2022/03/09 11:08:00;;;;;;;18.38;5.68;;;;;;;26.77;41.87;98620.50;4965209;28;20046;-66
2022/03/09 11:10:45;;;;;;;29.00;6.40;;;;;;;26.63;41.40;98615.72;4964140;28;20058;-66
2022/03/09 11:13:39;;;;;;;29.63;7.18;;;;;;;26.59;43.06;98612.53;4963076;28;20083;-66
2022/03/09 11:16:28;;;;;;;15.80;6.15;;;;;;;26.50;42.36;98609.97;4964613;28;20054;-65
2022/03/09 11:19:13;;;;;;;26.02;5.70;;;;;;;26.51;43.26;98604.53;4963944;28;20057;-66
2022/03/09 11:22:08;;;;;;;27.00;8.10;;;;;;;26.47;44.32;98602.34;4962907;28;20054;-65
2022/03/09 11:24:43;;;;;;;29.40;7.20;;;;;;;26.34;45.19;98601.88;4964989;28;20607;-65
2022/03/09 11:27:31;;;;;;;22.50;6.50;;;;;;;26.36;45.56;98602.53;4963129;28;20668;-68
2022/03/09 11:30:35;;;;;;;25.52;6.70;;;;;;;26.32;45.35;98595.88;4990979;28;20057;-65
2022/03/09 11:33:43;;;;;;;22.38;6.35;;;;;;;26.27;44.84;98604.22;5004064;28;20050;-66
2022/03/09 11:36:36;;;;;;;22.60;7.28;;;;;;;26.17;46.67;98599.00;5001200;28;20050;-65
2022/03/09 11:39:27;;;;;;;23.85;7.32;;;;;;;26.10;48.04;98597.88;5003784;28;20168;-67
2022/03/09 11:42:28;;;;;;;30.20;8.88;;;;;;;26.08;48.77;98594.59;5003462;28;20053;-66
2022/03/09 11:45:29;;;;;;;28.42;8.45;;;;;;;26.06;48.03;98600.97;5001861;28;20054;-67
2022/03/09 11:48:09;;;;;;;23.35;8.15;;;;;;;25.96;49.66;98598.38;5004683;28;20054;-68
2022/03/09 11:51:07;;;;;;;30.15;10.50;;;;;;;25.87;48.51;98607.16;5004292;28;20132;-67
2022/03/09 11:53:55;;;;;;;46.25;9.25;;;;;;;25.83;48.30;98600.50;5005993;28;20115;-66
2022/03/09 11:56:58;;;;;;;30.77;9.77;;;;;;;25.83;48.56;98605.78;5003635;28;20061;-67
2022/03/09 11:59:33;;;;;;;31.70;9.20;;;;;;;25.81;48.72;98605.09;5007653;28;20061;-67
2022/03/09 12:02:22;;;;;;;24.80;9.18;;;;;;;25.75;49.49;98601.22;5005578;28;20058;-66
2022/03/09 12:05:04;;;;;;;38.25;10.20;;;;;;;25.76;48.85;98605.53;4989129;28;20050;-66
2022/03/09 12:07:54;;;;;;;33.53;8.82;;;;;;;25.60;48.37;98607.94;5004992;28;20136;-67
2022/03/09 12:10:47;;;;;;;28.02;8.25;;;;;;;25.53;49.31;98604.19;5006658;28;20161;-67
2022/03/09 12:13:44;;;;;;;34.47;9.55;;;;;;;25.42;48.93;98601.69;5004873;28;20042;-67
2022/03/09 12:16:33;;;;;;;26.27;8.00;;;;;;;25.48;49.15;98607.22;5005987;28;20049;-66
2022/03/09 12:19:18;;;;;;;35.38;8.82;;;;;;;25.34;50.55;98610.31;5007915;28;20052;-67
2022/03/09 12:22:08;;;;;;;32.33;8.27;;;;;;;25.31;50.34;98615.84;5008439;28;20045;-67
2022/03/09 12:24:50;;;;;;;24.38;8.68;;;;;;;25.27;50.83;98609.22;5007455;28;20047;-67
2022/03/09 12:27:39;;;;;;;28.50;9.80;;;;;;;25.29;50.74;98615.19;5007290;28;20049;-67
2022/03/09 12:30:39;;;;;;;28.35;9.23;;;;;;;25.29;52.34;98622.25;5007325;28;20450;-67
2022/03/09 12:33:31;;;;;;;28.60;10.13;;;;;;;25.21;51.60;98630.88;5006251;28;20054;-67
2022/03/09 12:36:24;;;;;;;35.70;9.68;;;;;;;25.13;52.21;98625.47;5005983;28;20057;-66
2022/03/09 12:39:15;;;;;;;35.33;8.95;;;;;;;25.09;53.32;98629.34;5004456;28;20050;-67
2022/03/09 12:41:59;;;;;;;31.05;10.02;;;;;;;24.98;53.16;98638.19;5005912;28;20042;-67
2022/03/09 12:44:49;;;;;;;30.45;9.38;;;;;;;24.95;54.10;98635.03;5006376;28;20053;-67
2022/03/09 12:47:34;;;;;;;33.28;9.45;;;;;;;24.66;55.77;98648.13;5004940;28;20072;-67
2022/03/09 12:50:29;;;;;;;41.17;9.43;;;;;;;24.67;55.45;98647.97;4997045;28;20057;-67
2022/03/09 12:53:11;;;;;;;35.17;9.40;;;;;;;24.55;56.22;98649.06;5004895;28;20045;-68